Time;durP1;ratioP1;P1;durP2;ratioP2;P2;SDS_P1;SDS_P2;PMS_P1;PMS_P2;Temp;Humidity;BMP_temperature;BMP_pressure;BME280_temperature;BME280_humidity;BME280_pressure;Samples;Min_cycle;Max_cycle;Signal;HPM_P1;HPM_P2
2023/03/01 00:00:55;;;;;;;15.07;8.57;;;;;;;-2.99;79.72;102356.41;4984836;28;20689;-83
2023/03/01 00:03:21;;;;;;;12.63;8.77;;;;;;;-3.00;79.61;102362.47;4991186;28;20215;-82
2023/03/01 00:05:48;;;;;;;15.40;9.30;;;;;;;-3.01;80.32;102372.84;4989445;28;20584;-83
2023/03/01 00:08:16;;;;;;;12.00;9.03;;;;;;;-3.03;80.11;102375.44;4986552;28;20267;-82
2023/03/01 00:10:42;;;;;;;16.80;11.03;;;;;;;-3.04;80.34;102363.25;4986044;28;20199;-82
2023/03/01 00:13:09;;;;;;;13.13;9.30;;;;;;;-3.06;80.26;102364.97;4990669;28;20219;-83
2023/03/01 00:15:39;;;;;;;12.63;9.27;;;;;;;-3.10;80.27;102373.56;4994368;28;20203;-82
2023/03/01 00:18:05;;;;;;;13.20;8.80;;;;;;;-3.13;79.71;102375.22;4984669;28;20224;-82
2023/03/01 00:20:32;;;;;;;16.80;9.83;;;;;;;-3.20;79.80;102371.59;4988256;28;20227;-82
2023/03/01 00:22:58;;;;;;;12.87;9.37;;;;;;;-3.25;79.99;102378.47;4989303;28;20212;-82
2023/03/01 00:25:26;;;;;;;14.93;9.37;;;;;;;-3.29;80.05;102377.53;4989184;28;20222;-81
2023/03/01 00:27:53;;;;;;;14.10;9.60;;;;;;;-3.32;80.10;102377.47;4990208;28;20261;-83
2023/03/01 00:30:19;;;;;;;14.17;9.70;;;;;;;-3.34;80.37;102376.53;4997612;28;20207;-82
2023/03/01 00:32:45;;;;;;;13.83;9.43;;;;;;;-3.35;80.51;102368.69;4998887;28;20218;-82
2023/03/01 00:35:12;;;;;;;14.67;9.37;;;;;;;-3.37;80.50;102373.88;4992786;28;20227;-82
2023/03/01 00:37:41;;;;;;;14.80;9.57;;;;;;;-3.37;80.82;102372.97;4989459;28;20226;-83
2023/03/01 00:40:10;;;;;;;15.87;10.53;;;;;;;-3.38;80.66;102368.63;4982927;28;20240;-83
2023/03/01 00:42:38;;;;;;;16.50;10.67;;;;;;;-3.40;80.94;102367.75;4989165;28;20211;-84
2023/03/01 00:45:05;;;;;;;16.30;9.43;;;;;;;-3.42;80.80;102359.00;4991462;28;20328;-82
2023/03/01 00:47:31;;;;;;;18.10;9.93;;;;;;;-3.43;80.81;102362.47;4987130;28;20237;-82
2023/03/01 00:49:58;;;;;;;14.77;10.27;;;;;;;-3.46;81.08;102354.56;4998910;28;20215;-83
2023/03/01 00:52:24;;;;;;;14.80;10.77;;;;;;;-3.49;81.07;102352.78;5001110;28;20211;-83
2023/03/01 00:54:54;;;;;;;13.97;10.17;;;;;;;-3.52;81.05;102350.97;5001489;28;20208;-82
2023/03/01 00:57:20;;;;;;;14.90;9.37;;;;;;;-3.53;80.91;102354.44;4993226;28;20203;-82
2023/03/01 00:59:48;;;;;;;19.40;11.03;;;;;;;-3.57;80.97;102355.22;4986778;28;20208;-83
2023/03/01 01:02:14;;;;;;;16.00;10.83;;;;;;;-3.59;81.23;102366.47;4996152;28;20234;-82
2023/03/01 01:04:41;;;;;;;16.63;9.50;;;;;;;-3.63;81.13;102355.09;4995526;28;20211;-82
2023/03/01 01:07:08;;;;;;;14.43;9.00;;;;;;;-3.66;81.01;102357.63;4990471;28;20215;-82
2023/03/01 01:09:34;;;;;;;14.13;8.73;;;;;;;-3.70;81.08;102361.00;4991796;28;20214;-82
2023/03/01 01:12:00;;;;;;;16.17;8.77;;;;;;;-3.73;80.92;102360.94;4990372;28;20211;-83
2023/03/01 01:14:27;;;;;;;10.03;7.93;;;;;;;-3.76;80.96;102358.25;4994184;28;20199;-82
2023/03/01 01:16:55;;;;;;;13.73;9.13;;;;;;;-3.79;80.85;102359.94;4988437;28;20216;-83
2023/03/01 01:19:21;;;;;;;15.23;9.17;;;;;;;-3.81;81.15;102359.00;4992315;28;20227;-82
2023/03/01 01:21:49;;;;;;;13.57;8.83;;;;;;;-3.83;81.25;102358.09;4989589;28;20231;-83
2023/03/01 01:24:16;;;;;;;11.97;7.93;;;;;;;-3.84;81.50;102365.03;4984831;28;20300;-82
2023/03/01 01:26:43;;;;;;;12.17;8.83;;;;;;;-3.87;81.80;102358.03;4984528;28;20207;-83
2023/03/01 01:29:10;;;;;;;16.40;10.07;;;;;;;-3.88;81.55;102352.78;4993040;28;20599;-82
2023/03/01 01:31:39;;;;;;;18.30;10.47;;;;;;;-3.90;81.58;102344.94;4989848;28;20212;-82
2023/03/01 01:34:13;;;;;;;15.40;9.67;;;;;;;-3.91;81.63;102337.97;4995174;28;20212;-83
2023/03/01 01:36:39;;;;;;;16.77;10.03;;;;;;;-3.93;81.86;102339.66;4992690;28;20204;-82
2023/03/01 01:39:06;;;;;;;19.93;11.10;;;;;;;-3.94;81.88;102343.09;4994996;28;20235;-82
2023/03/01 01:41:33;;;;;;;13.70;9.87;;;;;;;-3.95;81.90;102340.50;4991092;28;20242;-82
2023/03/01 01:44:16;;;;;;;14.90;9.77;;;;;;;-3.97;82.05;102331.75;4995459;28;20207;-84
2023/03/01 01:46:45;;;;;;;14.73;9.70;;;;;;;-4.00;82.10;102332.56;4986127;28;20212;-82
2023/03/01 01:49:25;;;;;;;18.13;10.67;;;;;;;-4.02;81.92;102335.97;4990738;28;20223;-82
2023/03/01 01:52:00;;;;;;;14.47;9.37;;;;;;;-4.04;81.99;102335.06;4985015;28;20207;-84
2023/03/01 01:54:31;;;;;;;17.77;10.23;;;;;;;-4.08;82.10;102333.22;4980802;28;20212;-83
2023/03/01 01:57:01;;;;;;;13.80;9.10;;;;;;;-4.10;82.06;102332.31;4995289;28;20237;-85
2023/03/01 01:59:31;;;;;;;14.77;10.00;;;;;;;-4.12;82.25;102336.63;4990828;28;20892;-82
2023/03/01 02:02:01;;;;;;;14.70;9.43;;;;;;;-4.14;82.17;102333.09;4986141;28;20227;-82
2023/03/01 02:04:29;;;;;;;12.93;9.13;;;;;;;-4.15;82.24;102332.22;4992339;28;20204;-82
2023/03/01 02:07:02;;;;;;;15.40;9.67;;;;;;;-4.16;82.24;102324.38;4990870;28;20215;-82
2023/03/01 02:09:29;;;;;;;16.70;9.83;;;;;;;-4.17;82.32;102320.00;4983874;28;20599;-82
2023/03/01 02:11:55;;;;;;;14.03;9.33;;;;;;;-4.17;82.48;102322.63;4995377;28;20210;-82
2023/03/01 02:14:22;;;;;;;15.97;9.57;;;;;;;-4.20;82.69;102318.22;4992040;28;20207;-82
2023/03/01 02:16:49;;;;;;;14.43;9.50;;;;;;;-4.22;82.60;102310.38;4988492;28;20203;-85
2023/03/01 02:19:27;;;;;;;14.00;8.57;;;;;;;-4.23;82.64;102310.34;4989497;28;20215;-82
2023/03/01 02:22:02;;;;;;;15.77;9.90;;;;;;;-4.26;82.70;102315.47;4982915;28;20216;-83
2023/03/01 02:24:36;;;;;;;12.53;8.83;;;;;;;-4.28;82.74;102310.22;4995421;28;20724;-82
2023/03/01 02:27:04;;;;;;;11.90;8.30;;;;;;;-4.29;82.85;102303.25;4994980;28;20200;-82
2023/03/01 02:29:32;;;;;;;13.03;8.33;;;;;;;-4.31;82.86;102306.69;4993222;28;20307;-82
2023/03/01 02:32:01;;;;;;;12.53;8.27;;;;;;;-4.34;82.91;102306.63;4989963;28;20271;-82
2023/03/01 02:34:29;;;;;;;16.03;8.80;;;;;;;-4.35;83.01;102307.44;4995964;28;20210;-82
2023/03/01 02:36:58;;;;;;;10.80;8.40;;;;;;;-4.38;82.98;102299.56;4988387;28;20204;-81
2023/03/01 02:39:29;;;;;;;14.27;8.73;;;;;;;-4.41;82.76;102300.38;4986387;28;20227;-81
2023/03/01 02:41:57;;;;;;;15.23;8.10;;;;;;;-4.42;82.82;102298.63;4999228;28;20728;-82
2023/03/01 02:44:24;;;;;;;13.00;8.43;;;;;;;-4.45;82.96;102290.72;4993835;28;20299;-82
2023/03/01 02:46:54;;;;;;;16.00;8.30;;;;;;;-4.46;82.94;102290.69;4998387;28;20211;-82
2023/03/01 02:49:24;;;;;;;13.13;8.50;;;;;;;-4.48;83.22;102292.41;4995233;28;20234;-82
2023/03/01 02:52:02;;;;;;;15.30;8.27;;;;;;;-4.49;83.07;102285.44;4992152;28;20210;-82
2023/03/01 02:54:33;;;;;;;14.27;8.17;;;;;;;-4.52;83.03;102283.66;4993116;28;20203;-84
2023/03/01 02:57:00;;;;;;;11.93;8.07;;;;;;;-4.53;83.40;102292.28;4992787;28;20200;-83
2023/03/01 02:59:32;;;;;;;11.93;7.90;;;;;;;-4.55;83.14;102291.38;5003485;28;20228;-82
2023/03/01 03:02:01;;;;;;;11.83;9.03;;;;;;;-4.59;82.96;102281.72;4996375;28;20228;-82
2023/03/01 03:04:27;;;;;;;13.47;8.93;;;;;;;-4.60;83.14;102285.16;4985430;28;20208;-82
2023/03/01 03:06:54;;;;;;;15.57;8.40;;;;;;;-4.63;83.21;102272.97;4992704;28;20206;-83
2023/03/01 03:09:20;;;;;;;11.47;8.37;;;;;;;-4.64;83.24;102278.13;4994449;28;20235;-81
2023/03/01 03:11:47;;;;;;;11.80;7.63;;;;;;;-4.66;83.31;102266.84;4991846;28;20682;-83
2023/03/01 03:14:16;;;;;;;11.80;8.33;;;;;;;-4.68;83.41;102271.13;4985485;28;20216;-82
2023/03/01 03:16:44;;;;;;;13.43;8.73;;;;;;;-4.70;83.43;102263.28;4989072;28;20207;-81
2023/03/01 03:19:13;;;;;;;11.57;8.27;;;;;;;-4.71;83.74;102263.25;4999227;28;20227;-81
2023/03/01 03:21:40;;;;;;;13.23;9.10;;;;;;;-4.73;83.82;102257.13;5001581;28;20696;-82
2023/03/01 03:24:06;;;;;;;13.77;9.50;;;;;;;-4.74;83.69;102264.03;5003767;28;20210;-82
2023/03/01 03:26:33;;;;;;;13.27;9.50;;;;;;;-4.77;83.62;102255.28;5004469;28;20214;-81
2023/03/01 03:29:00;;;;;;;15.87;8.57;;;;;;;-4.77;83.79;102250.09;4994415;28;20232;-81
2023/03/01 03:31:26;;;;;;;16.23;9.10;;;;;;;-4.80;83.81;102263.00;4991657;28;20203;-82
2023/03/01 03:33:53;;;;;;;14.27;9.37;;;;;;;-4.82;83.95;102262.06;4996164;28;20216;-81
2023/03/01 03:36:24;;;;;;;12.37;9.67;;;;;;;-4.84;84.02;102256.88;4994786;28;20215;-82
2023/03/01 03:38:49;;;;;;;15.40;8.60;;;;;;;-4.85;84.19;102272.41;4986561;28;20242;-82
2023/03/01 03:41:17;;;;;;;14.20;9.03;;;;;;;-4.87;84.19;102256.78;4999903;28;20212;-82
2023/03/01 03:43:44;;;;;;;12.07;8.80;;;;;;;-4.88;84.10;102265.41;4990467;28;20659;-83
2023/03/01 03:46:11;;;;;;;16.03;8.97;;;;;;;-4.89;84.38;102263.66;4993928;28;20235;-82
2023/03/01 03:48:40;;;;;;;14.43;8.87;;;;;;;-4.91;84.24;102268.81;4987788;28;20228;-82
2023/03/01 03:51:07;;;;;;;14.77;9.30;;;;;;;-4.92;84.58;102261.84;4989627;28;20219;-82
2023/03/01 03:53:35;;;;;;;12.97;9.13;;;;;;;-4.93;84.55;102267.91;4993138;28;20302;-82
2023/03/01 03:56:01;;;;;;;14.53;8.93;;;;;;;-4.94;84.70;102267.84;4988487;28;20212;-82
2023/03/01 03:58:28;;;;;;;12.70;8.03;;;;;;;-4.96;84.83;102267.81;4990709;28;20697;-81
2023/03/01 04:00:57;;;;;;;14.03;8.90;;;;;;;-4.98;84.80;102261.69;5001256;28;20211;-83
2023/03/01 04:03:25;;;;;;;11.70;8.80;;;;;;;-4.97;84.93;102262.56;4990590;28;20227;-81
2023/03/01 04:05:52;;;;;;;14.77;8.90;;;;;;;-4.99;85.08;102262.53;4998865;28;20207;-82
2023/03/01 04:08:21;;;;;;;11.53;8.40;;;;;;;-4.99;85.24;102256.44;4985477;28;20243;-81
2023/03/01 04:10:50;;;;;;;12.47;8.80;;;;;;;-5.00;85.17;102255.56;4989499;28;20595;-81
2023/03/01 04:13:19;;;;;;;13.43;9.00;;;;;;;-5.01;85.39;102252.94;4991152;28;20207;-81
2023/03/01 04:15:46;;;;;;;13.33;8.80;;;;;;;-5.01;85.44;102251.22;4989177;28;20615;-81
2023/03/01 04:18:14;;;;;;;13.73;8.33;;;;;;;-5.04;85.37;102250.28;4991609;28;20231;-81
2023/03/01 04:20:40;;;;;;;12.60;9.23;;;;;;;-5.04;85.64;102258.97;4986863;28;20203;-82
2023/03/01 04:23:13;;;;;;;12.73;8.90;;;;;;;-5.06;85.62;102260.63;4984025;28;20238;-81
2023/03/01 04:25:40;;;;;;;14.10;9.07;;;;;;;-5.06;85.55;102259.75;4999877;28;20695;-83
2023/03/01 04:28:09;;;;;;;16.93;8.97;;;;;;;-5.08;85.70;102264.91;5000804;28;20228;-82
2023/03/01 04:30:36;;;;;;;16.17;9.60;;;;;;;-5.08;85.85;102271.81;5003161;28;20655;-82
2023/03/01 04:33:04;;;;;;;15.00;9.10;;;;;;;-5.10;85.66;102273.50;4987659;28;20691;-82
2023/03/01 04:35:31;;;;;;;14.03;8.80;;;;;;;-5.11;85.93;102270.00;4992888;28;20204;-82
2023/03/01 04:37:58;;;;;;;14.50;8.97;;;;;;;-5.13;86.00;102271.69;4996327;28;20227;-82
2023/03/01 04:40:25;;;;;;;13.40;9.40;;;;;;;-5.14;85.81;102271.66;4997504;28;20203;-82
2023/03/01 04:42:51;;;;;;;14.00;9.53;;;;;;;-5.15;85.81;102273.34;4995248;28;20236;-82
2023/03/01 04:45:19;;;;;;;15.13;9.27;;;;;;;-5.17;86.01;102275.03;4993058;28;20686;-82
2023/03/01 04:47:47;;;;;;;14.17;9.10;;;;;;;-5.18;86.28;102272.38;4989605;28;20220;-82
2023/03/01 04:50:15;;;;;;;15.90;8.90;;;;;;;-5.20;85.91;102259.41;4991907;28;20207;-81
2023/03/01 04:52:42;;;;;;;15.73;9.30;;;;;;;-5.21;86.47;102268.03;4995400;28;20218;-82
2023/03/01 04:55:10;;;;;;;14.23;9.73;;;;;;;-5.23;85.96;102261.91;4996702;28;20215;-81
2023/03/01 04:57:36;;;;;;;14.33;8.93;;;;;;;-5.22;86.20;102267.97;4989677;28;20258;-81
2023/03/01 05:00:19;;;;;;;11.63;8.87;;;;;;;-5.25;86.21;102256.66;4988823;28;20208;-82
2023/03/01 05:02:52;;;;;;;16.03;9.80;;;;;;;-5.25;86.42;102260.97;4992172;28;20213;-82
2023/03/01 05:05:25;;;;;;;12.13;8.90;;;;;;;-5.29;86.01;102260.00;4989132;28;20204;-82
2023/03/01 05:07:55;;;;;;;14.40;9.63;;;;;;;-5.31;86.17;102266.00;4986754;28;20219;-82
2023/03/01 05:10:23;;;;;;;14.93;9.20;;;;;;;-5.34;86.07;102263.31;4988512;28;20204;-82
2023/03/01 05:12:49;;;;;;;16.27;9.73;;;;;;;-5.37;86.11;102258.91;4995235;28;20203;-82
2023/03/01 05:15:16;;;;;;;15.30;9.13;;;;;;;-5.39;86.00;102254.53;4995088;28;20219;-82
2023/03/01 05:17:42;;;;;;;11.80;8.77;;;;;;;-5.40;86.20;102251.06;4990135;28;20230;-82
2023/03/01 05:20:11;;;;;;;10.57;8.27;;;;;;;-5.40;86.50;102255.38;4994570;28;20289;-83
2023/03/01 05:22:38;;;;;;;11.97;8.40;;;;;;;-5.40;86.44;102250.19;4994149;28;20223;-82
2023/03/01 05:25:05;;;;;;;16.07;8.83;;;;;;;-5.41;86.51;102243.25;5005164;28;20230;-83
2023/03/01 05:27:32;;;;;;;11.03;8.47;;;;;;;-5.43;86.68;102244.91;4989581;28;20224;-82
2023/03/01 05:30:13;;;;;;;13.07;9.50;;;;;;;-5.43;86.20;102250.09;4992935;28;20675;-83
2023/03/01 05:32:40;;;;;;;13.27;8.97;;;;;;;-5.45;86.53;102250.06;4985605;28;20204;-82
2023/03/01 05:35:07;;;;;;;11.90;8.40;;;;;;;-5.45;86.75;102246.56;4991152;28;20831;-82
2023/03/01 05:37:36;;;;;;;15.37;9.60;;;;;;;-5.48;86.95;102237.00;4991327;28;20228;-82
2023/03/01 05:40:03;;;;;;;14.17;8.97;;;;;;;-5.49;86.59;102248.22;4993930;28;20267;-82
2023/03/01 05:42:30;;;;;;;14.43;10.27;;;;;;;-5.52;86.66;102249.84;4985701;28;20228;-82
2023/03/01 05:44:59;;;;;;;19.10;9.60;;;;;;;-5.53;86.72;102245.47;4993614;28;20678;-82
2023/03/01 05:47:25;;;;;;;13.23;9.07;;;;;;;-5.54;86.68;102261.88;4989993;28;20214;-82
2023/03/01 05:49:52;;;;;;;14.57;8.50;;;;;;;-5.55;86.90;102249.78;4992880;28;20221;-83
2023/03/01 05:52:18;;;;;;;14.70;9.23;;;;;;;-5.56;86.67;102258.41;4991245;28;20223;-82
2023/03/01 05:54:46;;;;;;;12.73;8.30;;;;;;;-5.57;86.63;102256.63;4996056;28;20587;-83
2023/03/01 05:57:13;;;;;;;12.27;8.33;;;;;;;-5.60;86.91;102245.31;4988613;28;20670;-82
2023/03/01 05:59:39;;;;;;;14.90;7.83;;;;;;;-5.60;86.79;102247.03;5015982;28;20675;-83
2023/03/01 06:02:06;;;;;;;14.03;8.70;;;;;;;-5.60;86.87;102247.03;5017171;28;20637;-82
2023/03/01 06:04:32;;;;;;;14.27;9.13;;;;;;;-5.62;86.92;102249.59;5017077;28;20573;-82
2023/03/01 06:06:59;;;;;;;13.93;8.80;;;;;;;-5.62;86.85;102249.59;5016113;28;20213;-81
2023/03/01 06:09:25;;;;;;;9.43;7.60;;;;;;;-5.62;87.01;102254.78;5016952;28;20231;-82
2023/03/01 06:11:53;;;;;;;13.27;8.03;;;;;;;-5.64;86.86;102250.38;5017597;28;20659;-81
2023/03/01 06:14:20;;;;;;;11.57;7.90;;;;;;;-5.67;87.23;102256.34;5016917;28;20206;-82
2023/03/01 06:16:47;;;;;;;12.07;7.90;;;;;;;-5.69;87.27;102245.06;5016696;28;20207;-82
2023/03/01 06:19:13;;;;;;;11.33;8.27;;;;;;;-5.70;87.35;102248.47;5017422;28;20325;-82
2023/03/01 06:21:40;;;;;;;12.07;8.43;;;;;;;-5.70;87.39;102253.69;5017554;28;20843;-81
2023/03/01 06:24:08;;;;;;;13.27;9.27;;;;;;;-5.67;87.48;102245.09;5004792;28;20687;-81
2023/03/01 06:26:34;;;;;;;12.73;8.63;;;;;;;-5.65;87.75;102246.91;4981511;28;20207;-82
2023/03/01 06:29:02;;;;;;;16.43;9.50;;;;;;;-5.63;87.81;102241.75;4979152;28;20220;-82
2023/03/01 06:31:28;;;;;;;11.80;8.43;;;;;;;-5.60;88.22;102244.44;4996332;28;20679;-81
2023/03/01 06:33:55;;;;;;;17.03;9.07;;;;;;;-5.59;88.18;102251.41;4995573;28;20204;-82
2023/03/01 06:36:21;;;;;;;14.33;8.27;;;;;;;-5.57;88.23;102247.13;4993080;28;20215;-81
2023/03/01 06:38:48;;;;;;;15.13;9.17;;;;;;;-5.54;88.40;102248.91;5010678;28;20223;-83
2023/03/01 06:41:14;;;;;;;11.73;8.80;;;;;;;-5.53;88.46;102251.53;5006395;28;20208;-82
2023/03/01 06:43:41;;;;;;;12.80;9.23;;;;;;;-5.50;88.45;102255.94;4998905;28;20227;-83
2023/03/01 06:46:08;;;;;;;13.63;8.20;;;;;;;-5.49;88.37;102249.91;4991279;28;20237;-83
2023/03/01 06:48:35;;;;;;;11.50;7.77;;;;;;;-5.47;88.69;102261.22;4990172;28;20228;-82
2023/03/01 06:51:02;;;;;;;11.90;8.30;;;;;;;-5.45;88.61;102256.97;5005477;28;20230;-83
2023/03/01 06:53:28;;;;;;;11.80;8.00;;;;;;;-5.45;88.31;102259.56;4999128;28;20219;-82
2023/03/01 06:55:56;;;;;;;18.80;9.00;;;;;;;-5.46;88.66;102260.41;4998996;28;20234;-83
2023/03/01 06:58:22;;;;;;;12.43;8.33;;;;;;;-5.46;88.32;102260.41;4996027;28;20243;-82
2023/03/01 07:00:49;;;;;;;12.33;8.63;;;;;;;-5.44;88.93;102257.00;4979414;28;20219;-82
2023/03/01 07:03:17;;;;;;;14.27;8.00;;;;;;;-5.42;88.40;102254.47;4980748;28;20247;-83
2023/03/01 07:05:44;;;;;;;12.67;9.13;;;;;;;-5.39;88.70;102251.94;4979554;28;20212;-81
2023/03/01 07:08:11;;;;;;;14.47;8.43;;;;;;;-5.37;88.98;102250.25;4982524;28;20282;-82
2023/03/01 07:10:37;;;;;;;12.90;8.47;;;;;;;-5.38;88.92;102249.41;5008750;28;20207;-81
2023/03/01 07:13:06;;;;;;;11.83;8.40;;;;;;;-5.37;88.75;102251.13;5012306;28;20210;-81
2023/03/01 07:15:33;;;;;;;11.00;8.87;;;;;;;-5.34;89.07;102245.13;5001341;28;20203;-81
2023/03/01 07:17:59;;;;;;;16.77;8.83;;;;;;;-5.30;89.12;102244.38;5005763;28;20245;-81
2023/03/01 07:20:27;;;;;;;14.00;9.30;;;;;;;-5.26;89.58;102246.25;4993651;28;20219;-83
2023/03/01 07:22:54;;;;;;;14.50;9.23;;;;;;;-5.21;89.71;102241.19;5016551;28;20227;-83
2023/03/01 07:25:21;;;;;;;15.53;10.43;;;;;;;-5.17;90.11;102243.88;5001023;28;20227;-83
2023/03/01 07:27:50;;;;;;;14.67;10.33;;;;;;;-5.12;89.99;102234.47;4989182;28;20229;-82
2023/03/01 07:30:17;;;;;;;15.63;10.57;;;;;;;-5.07;90.42;102229.41;4989968;28;20234;-82
2023/03/01 07:32:45;;;;;;;30.67;16.57;;;;;;;-5.02;90.41;102227.81;5000438;28;20222;-85
2023/03/01 07:35:11;;;;;;;59.27;28.17;;;;;;;-4.97;90.83;102226.19;5003599;28;20211;-82
2023/03/01 07:37:39;;;;;;;26.07;15.03;;;;;;;-4.91;91.44;102231.56;5002843;28;20231;-83
2023/03/01 07:40:07;;;;;;;26.23;13.47;;;;;;;-4.85;91.58;102223.91;4992564;28;20698;-81
2023/03/01 07:42:34;;;;;;;19.47;11.63;;;;;;;-4.77;92.11;102224.09;4992256;28;20528;-83
2023/03/01 07:45:00;;;;;;;19.87;12.17;;;;;;;-4.70;92.26;102220.81;4998530;28;20399;-83
2023/03/01 07:47:27;;;;;;;18.93;12.87;;;;;;;-4.62;92.72;102217.53;4995318;28;20236;-82
2023/03/01 07:49:53;;;;;;;21.53;12.33;;;;;;;-4.51;93.53;102219.53;4992090;28;20203;-82
2023/03/01 07:52:19;;;;;;;18.83;12.47;;;;;;;-4.40;93.67;102216.31;4993817;28;20227;-82
2023/03/01 07:54:47;;;;;;;17.33;12.30;;;;;;;-4.30;94.25;102214.81;4997953;28;20200;-83
2023/03/01 07:57:14;;;;;;;16.23;11.73;;;;;;;-4.20;94.37;102225.44;5004901;28;20896;-82
2023/03/01 07:59:40;;;;;;;18.93;12.23;;;;;;;-4.08;94.75;102218.72;4992278;28;20605;-81
2023/03/01 08:02:07;;;;;;;22.23;12.60;;;;;;;-3.97;95.31;102215.53;4993581;28;20204;-82
2023/03/01 08:04:33;;;;;;;20.40;12.67;;;;;;;-3.85;95.98;102227.91;4997636;28;20607;-82
2023/03/01 08:07:00;;;;;;;15.03;10.83;;;;;;;-3.71;96.38;102229.06;4996861;28;20195;-82
2023/03/01 08:09:26;;;;;;;16.53;12.13;;;;;;;-3.59;97.08;102226.72;4987619;28;20224;-81
2023/03/01 08:11:55;;;;;;;24.60;14.33;;;;;;;-3.44;97.39;102212.22;4993269;28;20208;-82
2023/03/01 08:14:21;;;;;;;17.47;12.73;;;;;;;-3.32;97.48;102218.53;4988593;28;20751;-81
2023/03/01 08:16:50;;;;;;;18.10;11.47;;;;;;;-3.19;97.90;102217.03;4991543;28;20207;-81
2023/03/01 08:19:16;;;;;;;26.00;13.87;;;;;;;-3.06;98.11;102220.75;4987307;28;20224;-81
2023/03/01 08:21:43;;;;;;;19.70;12.30;;;;;;;-2.93;98.43;102220.09;4989556;28;20208;-81
2023/03/01 08:24:10;;;;;;;17.90;12.23;;;;;;;-2.81;98.21;102218.56;5002664;28;20236;-81
2023/03/01 08:26:37;;;;;;;18.03;12.23;;;;;;;-2.70;98.56;102225.69;4992828;28;20200;-81
2023/03/01 08:29:05;;;;;;;16.40;12.80;;;;;;;-2.60;98.29;102219.75;4995603;28;20227;-81
2023/03/01 08:31:35;;;;;;;22.77;12.17;;;;;;;-2.52;98.01;102215.53;4994717;28;20216;-81
2023/03/01 10:14:28;;;;;;;14.00;9.30;;;;;;;3.23;69.28;102170.19;5067504;27;20981;-71
2023/03/01 10:16:58;;;;;;;12.07;8.83;;;;;;;3.31;68.23;102170.13;5024886;28;20209;-70
2023/03/01 10:19:30;;;;;;;10.07;8.10;;;;;;;3.37;67.67;102178.84;5028527;28;20198;-69
2023/03/01 10:22:01;;;;;;;12.03;8.40;;;;;;;3.41;67.49;102162.09;5024056;28;20237;-69
2023/03/01 10:24:32;;;;;;;11.87;7.93;;;;;;;3.45;66.57;102170.84;5024306;28;20205;-67
2023/03/01 10:27:02;;;;;;;11.47;6.93;;;;;;;3.46;66.27;102170.84;5029366;28;20205;-69
2023/03/01 10:29:35;;;;;;;9.80;7.37;;;;;;;3.43;65.54;102165.59;5025043;28;20202;-70
2023/03/01 10:32:06;;;;;;;10.97;7.97;;;;;;;3.40;64.84;102181.44;5025472;28;20198;-70
2023/03/01 10:34:34;;;;;;;10.63;7.27;;;;;;;3.39;64.70;102168.31;5024375;28;20694;-70
2023/03/01 10:37:11;;;;;;;10.87;7.40;;;;;;;3.40;64.19;102173.53;5024830;28;20202;-69
2023/03/01 10:39:37;;;;;;;8.77;6.97;;;;;;;3.41;65.13;102161.22;5019742;28;20202;-70
2023/03/01 10:42:05;;;;;;;9.43;6.53;;;;;;;3.44;65.15;102164.72;5017760;28;20230;-71
2023/03/01 10:44:43;;;;;;;7.87;5.63;;;;;;;3.45;63.80;102174.38;5022908;28;20213;-72
2023/03/01 10:47:21;;;;;;;8.67;6.27;;;;;;;3.45;62.98;102166.47;5023789;28;20210;-70
2023/03/01 10:49:59;;;;;;;8.10;6.00;;;;;;;3.47;62.96;102162.06;5027622;28;20237;-70
2023/03/01 10:52:31;;;;;;;8.80;6.60;;;;;;;3.48;63.25;102163.81;5025149;28;20198;-70
2023/03/01 10:55:00;;;;;;;8.70;5.90;;;;;;;3.51;62.42;102162.91;5024239;28;20222;-69
2023/03/01 10:57:36;;;;;;;8.33;5.80;;;;;;;3.57;61.92;102161.97;5023866;28;20203;-69
2023/03/01 11:00:20;;;;;;;7.23;5.40;;;;;;;3.61;61.46;102154.00;5028538;28;20210;-70
2023/03/01 11:02:49;;;;;;;9.20;5.67;;;;;;;3.67;61.69;102155.72;5027183;28;20226;-68
2023/03/01 11:05:23;;;;;;;6.20;4.47;;;;;;;3.74;60.62;102155.63;5028532;28;20257;-69
2023/03/01 11:07:51;;;;;;;7.80;5.20;;;;;;;3.80;60.93;102157.31;5022920;28;20295;-67
2023/03/01 11:10:20;;;;;;;7.93;5.67;;;;;;;3.84;60.21;102145.84;5025060;28;20214;-69
2023/03/01 11:12:46;;;;;;;8.27;5.53;;;;;;;3.87;60.12;102143.19;5020332;28;20497;-68
2023/03/01 11:15:24;;;;;;;7.50;5.73;;;;;;;3.91;59.66;102138.75;5010227;28;20222;-69
2023/03/01 11:17:51;;;;;;;6.47;4.77;;;;;;;3.97;59.35;102136.03;5007998;28;20230;-71
2023/03/01 11:20:26;;;;;;;8.67;5.07;;;;;;;3.99;59.42;102137.75;5003090;28;20208;-69
2023/03/01 11:22:55;;;;;;;8.00;5.37;;;;;;;4.04;59.40;102140.34;5005615;28;20266;-69
2023/03/01 11:25:25;;;;;;;9.67;5.23;;;;;;;4.10;58.56;102143.78;5010684;28;20223;-70
2023/03/01 11:27:54;;;;;;;8.30;4.97;;;;;;;4.14;58.22;102134.91;5010950;28;20214;-68
2023/03/01 11:30:26;;;;;;;11.13;5.43;;;;;;;4.20;58.61;102126.06;5010176;28;20218;-70
2023/03/01 11:33:04;;;;;;;8.10;5.50;;;;;;;4.26;58.24;102130.38;5020051;28;20202;-68
2023/03/01 11:35:35;;;;;;;8.27;5.23;;;;;;;4.31;58.70;102128.53;5010114;28;20234;-69
2023/03/01 11:38:16;;;;;;;7.03;5.30;;;;;;;4.36;58.09;102126.72;5013115;28;20203;-69
2023/03/01 11:40:47;;;;;;;6.77;4.80;;;;;;;4.37;57.36;102128.47;5017838;28;20214;-69
2023/03/01 11:43:24;;;;;;;10.00;5.10;;;;;;;4.35;56.73;102132.88;5011024;28;20231;-68
2023/03/01 11:46:33;;;;;;;7.43;5.13;;;;;;;4.40;57.14;102128.41;5010972;28;20225;-70
2023/03/01 11:49:18;;;;;;;6.30;4.63;;;;;;;4.43;57.03;102121.34;5005974;28;20209;-69
2023/03/01 11:51:54;;;;;;;7.67;5.80;;;;;;;4.47;56.95;102122.19;5011280;28;20742;-69
2023/03/01 11:54:34;;;;;;;17.43;9.60;;;;;;;4.49;56.45;102123.88;5007788;28;20203;-69
2023/03/01 11:57:05;;;;;;;6.60;4.80;;;;;;;4.50;55.85;102116.81;5014171;28;20222;-74
2023/03/01 11:59:46;;;;;;;8.70;5.20;;;;;;;4.51;55.88;102115.94;5009627;28;20207;-73
2023/03/01 12:02:45;;;;;;;7.67;4.77;;;;;;;4.53;56.26;102103.59;5011726;28;20242;-67
2023/03/01 12:05:35;;;;;;;8.43;4.47;;;;;;;4.57;56.14;102110.56;4995374;28;20311;-68
2023/03/01 12:08:11;;;;;;;6.73;4.67;;;;;;;4.59;56.08;102108.78;5013336;28;20199;-69
2023/03/01 12:10:46;;;;;;;7.60;4.77;;;;;;;4.61;55.37;102107.00;5015810;28;20206;-68
2023/03/01 12:13:48;;;;;;;6.70;4.50;;;;;;;4.63;54.89;102097.31;5009310;28;20202;-68
2023/03/01 12:16:24;;;;;;;7.83;5.53;;;;;;;4.62;54.70;102099.97;5001826;28;20226;-68
2023/03/01 12:19:26;;;;;;;7.07;5.20;;;;;;;4.61;54.87;102093.81;5014875;28;20206;-68
2023/03/01 12:22:15;;;;;;;7.57;5.07;;;;;;;4.63;55.11;102088.50;5010184;28;20785;-68
2023/03/01 12:25:01;;;;;;;7.57;4.83;;;;;;;4.63;54.60;102092.03;5010684;28;20206;-68
2023/03/01 12:27:52;;;;;;;8.03;4.87;;;;;;;4.63;54.85;102076.19;5008599;28;20214;-68
2023/03/01 12:30:33;;;;;;;7.07;4.53;;;;;;;4.66;54.74;102075.28;5004801;28;20594;-71
2023/03/01 12:33:13;;;;;;;10.13;5.30;;;;;;;4.67;54.10;102074.34;5011024;28;20821;-68
2023/03/01 12:35:55;;;;;;;6.27;4.47;;;;;;;4.71;54.67;102063.72;5013339;28;20667;-68
2023/03/01 12:38:34;;;;;;;6.47;4.87;;;;;;;4.72;53.77;102060.19;5009565;28;20203;-65
2023/03/01 12:41:32;;;;;;;5.97;4.13;;;;;;;4.74;53.69;102053.13;5005524;28;20203;-69
2023/03/01 12:44:09;;;;;;;5.23;4.40;;;;;;;4.78;53.90;102054.81;5008008;28;20664;-68
2023/03/01 12:46:52;;;;;;;5.40;4.10;;;;;;;4.78;53.49;102046.91;5005822;28;20222;-68
2023/03/01 12:49:24;;;;;;;5.47;4.13;;;;;;;4.79;53.50;102046.00;5013318;28;20265;-68
2023/03/01 12:51:56;;;;;;;9.03;4.43;;;;;;;4.81;53.86;102036.28;5010941;28;20802;-68
2023/03/01 12:54:29;;;;;;;6.40;4.40;;;;;;;4.87;53.96;102043.22;5013222;28;20211;-68
2023/03/01 12:56:57;;;;;;;6.57;4.57;;;;;;;4.89;54.38;102023.81;5010968;28;20207;-68
2023/03/01 12:59:32;;;;;;;7.57;4.50;;;;;;;4.95;54.29;102029.88;5009300;28;20889;-68
2023/03/01 13:02:08;;;;;;;5.03;3.90;;;;;;;4.99;54.28;102026.31;5013909;28;20205;-67
2023/03/01 13:04:52;;;;;;;4.57;4.00;;;;;;;5.03;53.38;102017.41;5008882;28;20226;-68
2023/03/01 13:07:31;;;;;;;6.73;4.57;;;;;;;5.02;53.05;102010.38;5006216;28;20215;-68
2023/03/01 13:10:15;;;;;;;5.37;3.83;;;;;;;5.03;53.41;102001.56;5009814;28;20198;-68
2023/03/01 13:12:47;;;;;;;6.20;4.10;;;;;;;5.04;52.96;102009.44;5004460;28;20214;-68